Wan Hai 501 — S6AS7 — position and weather

sailwx.info

Track history (hours):
 
Tides and Currents Weather Stations Pressure Air Temp Water Temp Dewpoint Dewpoint Depression Visibility Wind Speed Wind Dir Waves Ship Positions

Wan Hai 501

Last reported at 2014-Nov-16 17:20 UTC. Time now 2014-Nov-26 07:35 UTC.
Position N 01°13' E 103°40'.
Warning: this ship's position is 9 days out of date.

Length 268 m; draft 12.1 m.

Type: Cargo ship. MMSI: 563382000.

Date/timePositionNaut miles runAvg speedWind from/ knotsBaromVisibWave heightAir tempDewpointWater temp
2014-Nov-16 17:20N 01°13' E 103°40'7 8.9
2014-Nov-16 16:33N 01°17' E 103°45'1 0.4
2014-Nov-16 15:08N 01°17' E 103°46'0 0.0
2014-Nov-16 14:17N 01°17' E 103°46'0 0.0
2014-Nov-16 13:32N 01°17' E 103°46'0 0.0
2014-Nov-16 12:29N 01°17' E 103°46'0 0.0
2014-Nov-16 11:20N 01°17' E 103°46'0 0.0
2014-Nov-16 09:32N 01°17' E 103°46'0 0.0
2014-Nov-16 08:26N 01°17' E 103°46'0 0.0
2014-Nov-16 07:29N 01°17' E 103°46'0 0.0
2014-Nov-16 06:29N 01°17' E 103°46'0 0.0
2014-Nov-16 05:20N 01°17' E 103°46'0 0.0
2014-Nov-16 04:29N 01°17' E 103°46'0 0.0
2014-Nov-16 03:20N 01°17' E 103°46'0 0.0
2014-Nov-16 02:29N 01°17' E 103°46'0 0.0
2014-Nov-16 01:20N 01°17' E 103°46'1 0.9
2014-Nov-16 00:33N 01°17' E 103°45'5 5.2
2014-Nov-15 23:33N 01°13' E 103°48'9 8.6
2014-Nov-15 22:33N 01°14' E 103°57'1010.1
2014-Nov-15 21:32N 01°17' E 104°07'1310.6
2014-Nov-15 20:17N 01°19' E 104°20'  
2014-Nov-12 20:08N 21°51' E 113°56'3011.5
2014-Nov-12 17:30N 22°20' E 114°07'0 0.1
2014-Nov-12 15:27N 22°20' E 114°08'0 0.0
2014-Nov-12 14:32N 22°20' E 114°08'0 0.0
2014-Nov-12 13:33N 22°20' E 114°08'0 0.0
2014-Nov-12 12:26N 22°20' E 114°08'0 0.0
2014-Nov-12 11:32N 22°20' E 114°08'0 0.0
2014-Nov-12 10:19N 22°20' E 114°08'1 1.2
2014-Nov-12 09:33N 22°19' E 114°07'2 1.9
2014-Nov-12 08:28N 22°19' E 114°05'0 0.1
2014-Nov-12 07:22N 22°19' E 114°05'0 0.0
2014-Nov-12 06:28N 22°19' E 114°05'0 0.2
2014-Nov-12 05:28N 22°19' E 114°05'0 0.1
2014-Nov-12 04:22N 22°19' E 114°05'0 0.0
2014-Nov-12 03:28N 22°19' E 114°05'0 0.0
2014-Nov-12 02:22N 22°19' E 114°05'0 0.2
2014-Nov-12 01:10N 22°19' E 114°05'0 0.2
2014-Nov-12 00:28N 22°19' E 114°05'0 0.1
2014-Nov-11 23:04N 22°19' E 114°05'0 0.1
2014-Nov-11 22:28N 22°19' E 114°05'0 0.1
2014-Nov-11 21:28N 22°19' E 114°05'0 0.0
2014-Nov-11 20:22N 22°19' E 114°05'0 0.0
2014-Nov-11 19:28N 22°19' E 114°05'0 0.0
2014-Nov-11 18:28N 22°19' E 114°05'3 2.4
2014-Nov-11 17:21N 22°21' E 114°03'911.4
2014-Nov-11 16:33N 22°24' E 113°53'4 3.6
2014-Nov-11 15:33N 22°27' E 113°54'0 0.0
2014-Nov-11 14:31N 22°27' E 113°54'0 0.0
2014-Nov-11 13:31N 22°27' E 113°54'0 0.0
2014-Nov-11 12:31N 22°27' E 113°54'0 0.0
2014-Nov-11 11:25N 22°27' E 113°54'0 0.0
2014-Nov-11 10:25N 22°27' E 113°54'0 0.0
2014-Nov-11 09:25N 22°27' E 113°54'0 0.0
2014-Nov-11 08:31N 22°27' E 113°54'0 0.0
2014-Nov-11 07:19N 22°27' E 113°54'0 0.0
2014-Nov-11 06:25N 22°27' E 113°54'0 0.0
2014-Nov-11 05:33N 22°27' E 113°54'7 6.9
2014-Nov-11 04:32N 22°21' E 113°57'1010.6
2014-Nov-11 03:33N 22°16' E 114°07'31012.8
2014-Nov-10 03:22N 22°30' E 119°42'1517.9
2014-Nov-10 02:33N 22°31' E 119°57'1818.1
2014-Nov-10 01:33N 22°33' E 120°17'2 1.9
2014-Nov-10 00:29N 22°34' E 120°18'0 0.0
2014-Nov-09 18:17N 22°34' E 120°18'0 0.0
2014-Nov-09 17:29N 22°34' E 120°18'0 0.0
2014-Nov-09 16:23N 22°34' E 120°18'0 0.0
2014-Nov-09 15:29N 22°34' E 120°18'0 0.0
2014-Nov-09 14:17N 22°34' E 120°18'0 0.0
2014-Nov-09 13:05N 22°34' E 120°18'0 0.0
2014-Nov-09 12:23N 22°34' E 120°18'0 0.0
2014-Nov-09 11:29N 22°34' E 120°18'0 0.0
2014-Nov-09 10:29N 22°34' E 120°18'0 0.0
2014-Nov-09 09:29N 22°34' E 120°18'0 0.0
2014-Nov-09 08:29N 22°34' E 120°18'0 0.0
2014-Nov-09 07:29N 22°34' E 120°18'0 0.0
2014-Nov-09 06:29N 22°34' E 120°18'0 0.0
2014-Nov-09 05:17N 22°34' E 120°18'1 1.0
2014-Nov-09 04:33N 22°34' E 120°19'5 4.8
2014-Nov-09 03:30N 22°32' E 120°14'4 4.6
2014-Nov-09 02:33N 22°27' E 120°13'1 0.8
2014-Nov-09 01:32N 22°28' E 120°12'1 0.9
2014-Nov-09 00:32N 22°29' E 120°12'1 1.2
2014-Nov-08 23:33N 22°29' E 120°11'8 7.5
2014-Nov-08 22:33N 22°36' E 120°07'1010.2
2014-Nov-08 21:33N 22°46' E 120°04'42016.8
2014-Nov-07 20:33N 29°26' E 122°25'1818.3
2014-Nov-07 19:33N 29°44' E 122°21'1514.8
2014-Nov-07 18:34N 29°55' E 122°10'1413.6
2014-Nov-07 17:33N 29°57' E 121°54'2 1.9
2014-Nov-07 16:27N 29°56' E 121°52'0 0.0
2014-Nov-07 15:09N 29°56' E 121°52'0 0.0
2014-Nov-07 11:15N 29°56' E 121°52'0 0.0
2014-Nov-07 10:15N 29°56' E 121°52'0 0.0
2014-Nov-07 09:15N 29°56' E 121°52'0 0.0
2014-Nov-07 08:09N 29°56' E 121°52'0 0.0
2014-Nov-07 07:21N 29°56' E 121°52'0 0.0
2014-Nov-07 05:07N 29°56' E 121°52'2 3.5
2014-Nov-07 04:33N 29°57' E 121°54'1313.2
2014-Nov-07 03:33N 29°56' E 122°09'1312.1
2014-Nov-07 02:30N 29°46' E 122°19'8 8.0
2014-Nov-07 01:33N 29°43' E 122°27'9511.8
2014-Nov-06 17:29N 31°15' E 121°58'  
Track history (hours):
 
Tides and Currents Weather Stations Pressure Air Temp Water Temp Dewpoint Dewpoint Depression Visibility Wind Speed Wind Dir Waves Ship Positions

Wan Hai 501

Last reported at 2014-Nov-16 17:20 UTC. Time now 2014-Nov-26 07:35 UTC.
Position N 01°13' E 103°40'.
Warning: this ship's position is 9 days out of date.

Length 268 m; draft 12.1 m.

Type: Cargo ship. MMSI: 563382000.

Date/timePositionNaut miles runAvg speedWind from/ knotsBaromVisibWave heightAir tempDewpointWater temp
2014-Nov-16 17:20N 01°13' E 103°40'7 8.9
2014-Nov-16 16:33N 01°17' E 103°45'1 0.4
2014-Nov-16 15:08N 01°17' E 103°46'0 0.0
2014-Nov-16 14:17N 01°17' E 103°46'0 0.0
2014-Nov-16 13:32N 01°17' E 103°46'0 0.0
2014-Nov-16 12:29N 01°17' E 103°46'0 0.0
2014-Nov-16 11:20N 01°17' E 103°46'0 0.0
2014-Nov-16 09:32N 01°17' E 103°46'0 0.0
2014-Nov-16 08:26N 01°17' E 103°46'0 0.0
2014-Nov-16 07:29N 01°17' E 103°46'0 0.0
2014-Nov-16 06:29N 01°17' E 103°46'0 0.0
2014-Nov-16 05:20N 01°17' E 103°46'0 0.0
2014-Nov-16 04:29N 01°17' E 103°46'0 0.0
2014-Nov-16 03:20N 01°17' E 103°46'0 0.0
2014-Nov-16 02:29N 01°17' E 103°46'0 0.0
2014-Nov-16 01:20N 01°17' E 103°46'1 0.9
2014-Nov-16 00:33N 01°17' E 103°45'5 5.2
2014-Nov-15 23:33N 01°13' E 103°48'9 8.6
2014-Nov-15 22:33N 01°14' E 103°57'1010.1
2014-Nov-15 21:32N 01°17' E 104°07'1310.6
2014-Nov-15 20:17N 01°19' E 104°20'  
2014-Nov-12 20:08N 21°51' E 113°56'3011.5
2014-Nov-12 17:30N 22°20' E 114°07'0 0.1
2014-Nov-12 15:27N 22°20' E 114°08'0 0.0
2014-Nov-12 14:32N 22°20' E 114°08'0 0.0
2014-Nov-12 13:33N 22°20' E 114°08'0 0.0
2014-Nov-12 12:26N 22°20' E 114°08'0 0.0
2014-Nov-12 11:32N 22°20' E 114°08'0 0.0
2014-Nov-12 10:19N 22°20' E 114°08'1 1.2
2014-Nov-12 09:33N 22°19' E 114°07'2 1.9
2014-Nov-12 08:28N 22°19' E 114°05'0 0.1
2014-Nov-12 07:22N 22°19' E 114°05'0 0.0
2014-Nov-12 06:28N 22°19' E 114°05'0 0.2
2014-Nov-12 05:28N 22°19' E 114°05'0 0.1
2014-Nov-12 04:22N 22°19' E 114°05'0 0.0
2014-Nov-12 03:28N 22°19' E 114°05'0 0.0
2014-Nov-12 02:22N 22°19' E 114°05'0 0.2
2014-Nov-12 01:10N 22°19' E 114°05'0 0.2
2014-Nov-12 00:28N 22°19' E 114°05'0 0.1
2014-Nov-11 23:04N 22°19' E 114°05'0 0.1
2014-Nov-11 22:28N 22°19' E 114°05'0 0.1
2014-Nov-11 21:28N 22°19' E 114°05'0 0.0
2014-Nov-11 20:22N 22°19' E 114°05'0 0.0
2014-Nov-11 19:28N 22°19' E 114°05'0 0.0
2014-Nov-11 18:28N 22°19' E 114°05'3 2.4
2014-Nov-11 17:21N 22°21' E 114°03'911.4
2014-Nov-11 16:33N 22°24' E 113°53'4 3.6
2014-Nov-11 15:33N 22°27' E 113°54'0 0.0
2014-Nov-11 14:31N 22°27' E 113°54'0 0.0
2014-Nov-11 13:31N 22°27' E 113°54'0 0.0
2014-Nov-11 12:31N 22°27' E 113°54'0 0.0
2014-Nov-11 11:25N 22°27' E 113°54'0 0.0
2014-Nov-11 10:25N 22°27' E 113°54'0 0.0
2014-Nov-11 09:25N 22°27' E 113°54'0 0.0
2014-Nov-11 08:31N 22°27' E 113°54'0 0.0
2014-Nov-11 07:19N 22°27' E 113°54'0 0.0
2014-Nov-11 06:25N 22°27' E 113°54'0 0.0
2014-Nov-11 05:33N 22°27' E 113°54'7 6.9
2014-Nov-11 04:32N 22°21' E 113°57'1010.6
2014-Nov-11 03:33N 22°16' E 114°07'31012.8
2014-Nov-10 03:22N 22°30' E 119°42'1517.9
2014-Nov-10 02:33N 22°31' E 119°57'1818.1
2014-Nov-10 01:33N 22°33' E 120°17'2 1.9
2014-Nov-10 00:29N 22°34' E 120°18'0 0.0
2014-Nov-09 18:17N 22°34' E 120°18'0 0.0
2014-Nov-09 17:29N 22°34' E 120°18'0 0.0
2014-Nov-09 16:23N 22°34' E 120°18'0 0.0
2014-Nov-09 15:29N 22°34' E 120°18'0 0.0
2014-Nov-09 14:17N 22°34' E 120°18'0 0.0
2014-Nov-09 13:05N 22°34' E 120°18'0 0.0
2014-Nov-09 12:23N 22°34' E 120°18'0 0.0
2014-Nov-09 11:29N 22°34' E 120°18'0 0.0
2014-Nov-09 10:29N 22°34' E 120°18'0 0.0
2014-Nov-09 09:29N 22°34' E 120°18'0 0.0
2014-Nov-09 08:29N 22°34' E 120°18'0 0.0
2014-Nov-09 07:29N 22°34' E 120°18'0 0.0
2014-Nov-09 06:29N 22°34' E 120°18'0 0.0
2014-Nov-09 05:17N 22°34' E 120°18'1 1.0
2014-Nov-09 04:33N 22°34' E 120°19'5 4.8
2014-Nov-09 03:30N 22°32' E 120°14'4 4.6
2014-Nov-09 02:33N 22°27' E 120°13'1 0.8
2014-Nov-09 01:32N 22°28' E 120°12'1 0.9
2014-Nov-09 00:32N 22°29' E 120°12'1 1.2
2014-Nov-08 23:33N 22°29' E 120°11'8 7.5
2014-Nov-08 22:33N 22°36' E 120°07'1010.2
2014-Nov-08 21:33N 22°46' E 120°04'42016.8
2014-Nov-07 20:33N 29°26' E 122°25'1818.3
2014-Nov-07 19:33N 29°44' E 122°21'1514.8
2014-Nov-07 18:34N 29°55' E 122°10'1413.6
2014-Nov-07 17:33N 29°57' E 121°54'2 1.9
2014-Nov-07 16:27N 29°56' E 121°52'0 0.0
2014-Nov-07 15:09N 29°56' E 121°52'0 0.0
2014-Nov-07 11:15N 29°56' E 121°52'0 0.0
2014-Nov-07 10:15N 29°56' E 121°52'0 0.0
2014-Nov-07 09:15N 29°56' E 121°52'0 0.0
2014-Nov-07 08:09N 29°56' E 121°52'0 0.0
2014-Nov-07 07:21N 29°56' E 121°52'0 0.0
2014-Nov-07 05:07N 29°56' E 121°52'2 3.5
2014-Nov-07 04:33N 29°57' E 121°54'1313.2
2014-Nov-07 03:33N 29°56' E 122°09'1312.1
2014-Nov-07 02:30N 29°46' E 122°19'8 8.0
2014-Nov-07 01:33N 29°43' E 122°27'9511.8
2014-Nov-06 17:29N 31°15' E 121°58'  

Dump ship's entire track history